• Join FlightAware (Why Join?)
  • Login
  • US Flag 
12:20AM EDT


 

Airport Tracker/Info


-or-


 

Live Flight TrackerFlight Track Log ✈ EJA619 ✈ 25-Jun-2013 ✈ KPHL - KPVD

Flight Track Log - Related Links

Times and Time Zones

All times are in EDT time to prevent confusion due to time zone crossing. See the EJA619 flight status page for this flight to view local times or setup timezone preferences in your user account.

Time Position Orientation Groundspeed Altitude Reporting Facility
EDT Latitude Longitude Course Direction KTS MPH feet Rate Location/Type
01:30PM 39.8667 -75.2667 270° West 142 163 700  Level Philadelphia TRACON
01:32PM 39.8667 -75.3667 270° West 187 215 6,800 3,180 Climbing Philadelphia TRACON
01:33PM 39.9311 -75.3944 342° North 240 276 9,600 1,500 Climbing New York Center
01:34PM 39.9964 -75.4342 335° Northwest 271 312 10,000 900 Climbing New York Center
01:35PM 40.0900 -75.4867 337° Northwest 321 369 11,400 1,500 Climbing New York Center
01:36PM 40.1614 -75.5294 335° Northwest 321 369 13,000 780 Climbing New York Center
01:37PM 40.2444 -75.5894 331° Northwest 333 383 13,000  Level New York Center
01:38PM 40.3453 -75.6183 348° North 338 389 13,000  Level New York Center
01:39PM 40.4450 -75.6253 357° North 343 395 13,000  Level New York Center
01:40PM 40.5447 -75.6350 356° North 354 407 13,000  Level New York Center
01:41PM 40.6361 -75.6417 357° North 359 413 13,000  Level New York Center
01:42PM 40.7339 -75.6458 358° North 365 420 13,000  Level New York Center
01:43PM 40.8486 -75.6431 North 365 420 13,000  Level New York Center
01:44PM 40.9475 -75.6172 11° North 365 420 13,000  Level New York Center
01:45PM 41.0486 -75.5914 11° North 371 427 13,000  Level New York Center
01:46PM 41.1475 -75.5681 10° North 371 427 13,000  Level New York Center
01:47PM 41.2400 -75.5442 11° North 371 427 13,000  Level New York Center
01:49PM 41.3750 -75.3447 48° Northeast 372 428 13,000  Level Boston Center
01:50PM 41.4264 -75.2169 62° Northeast 383 441 13,000  Level Boston Center
01:51PM 41.4828 -75.0367 67° East 392 451 13,000  Level Boston Center
01:52PM 41.5189 -74.9133 69° East 397 457 13,000  Level Boston Center
01:53PM 41.5636 -74.7625 68° East 405 466 13,000  Level Boston Center
01:54PM 41.5950 -74.6553 69° East 399 459 13,000  Level Boston Center
01:55PM 41.6311 -74.5147 71° East 394 453 13,000  Level Boston Center
01:56PM 41.6547 -74.3600 78° East 389 448 13,100  Climbing Boston Center
01:57PM 41.6678 -74.1992 84° East 389 448 13,100  Level Boston Center
01:58PM 41.6678 -74.0547 90° East 384 442 13,100 -120 Level Boston Center
01:59PM 41.6883 -73.9244 78° East 384 442 12,900 -120 Descending Boston Center
02:00PM 41.6842 -73.7633 92° East 389 448 12,900  Level Boston Center
02:01PM 41.6669 -73.6211 99° East 389 448 12,900  Level Boston Center
02:02PM 41.6475 -73.4792 100° East 389 448 13,000  Climbing Boston Center
02:03PM 41.6342 -73.3372 97° East 389 448 12,900  Descending Boston Center
02:04PM 41.6350 -73.2094 89° East 389 448 13,000  Climbing Boston Center
02:05PM 41.6256 -73.0511 95° East 384 442 12,900 -60 Descending Boston Center
02:06PM 41.5908 -72.9286 111° Southeast 384 442 12,900  Level Boston Center
02:07PM 41.5494 -72.7842 111° Southeast 390 449 12,900  Level Boston Center
02:08PM 41.5019 -72.6231 111° Southeast 383 441 13,000  Climbing Boston Center
02:10PM 41.4875 -72.4817 98° East 383 441 13,000 -60 Level Boston Center
02:10PM 41.4939 -72.3569 86° East 389 448 12,900 -960 Descending Boston Center
02:11PM 41.5042 -72.2378 83° East 384 442 11,600 -1,140 Descending Boston Center
02:12PM 41.5100 -72.0992 87° East 379 436 10,900 -420 Descending Boston Center
02:13PM 41.5119 -72.0297 88° East 383 441 11,000 -840 Climbing Boston Center
02:13PM 41.5136 -71.9633 88° East 369 425 10,100 -1,200 Descending Boston Center
02:14PM 41.5178 -71.9300 81° East 368 423 9,800 -1,620 Descending Boston Center
02:14PM 41.5214 -71.8494 87° East 320 368 8,500 -1,980 Descending Boston Center
02:15PM 41.5314 -71.7469 83° East 307 353 7,000 -1,680 Descending Boston Center
02:16PM 41.5872 -71.6825 41° Northeast 292 336 5,500 -1,080 Descending Boston Center
02:17PM 41.6472 -71.6206 38° Northeast 266 306 5,000 -300 Descending Boston Center
02:18PM 41.7072 -71.5642 35° Northeast 250 288 4,900  Descending Boston Center
02:19PM 41.7631 -71.5078 37° Northeast 249 287 5,000 -840 Climbing Boston Center
02:20PM 41.8167 -71.4539 37° Northeast 245 282 3,200 -960 Descending Boston Center
02:21PM 41.8558 -71.3922 50° Northeast 215 247 3,000 -240 Descending Boston Center
02:22PM 41.8158 -71.3564 146° Southeast 182 209 2,700 -840 Descending Boston Center
02:23PM 41.7764 -71.3850 208° Southwest 159 183 1,400 -1,140 Descending Boston Center
02:24PM 41.7456 -71.4078 209° Southwest 141 162 500 -1,020 Descending Boston Center
02:26PM 41.7167 -71.4167 211° Southwest  Level FlightAware Approximate
02:33PM 41.7240 -71.4282 211° Southwest  Level Estimated